Allison, TX

8:10 PM CDT on August 27, 2014 (GMT -0500)
Perry Lefors | Change Station
CLOSE
Current Station
Airport
Location: Pampa,
Elevation: 3245 ft
Nearby Weather Stations

Elev 3245 ft 35.61 °N, 101.00 °W | Updated 15 minutes ago

Overcast
Overcast
68 °F
Feels Like 68 °F
N
8
Wind Variable Wind from ESE

Today
High -- | Low -- °F
--% Chance of Precip.
Yesterday
High -- | Low -- °F
Precip. -- in
7:09 AM 8:14 PM
Waxing Crescent, 5% visible
Pressure 30.08 in
Visibility 10.0 miles
Clouds Scattered Clouds 2200 ft
Scattered Clouds 4700 ft
Overcast 9000 ft
Dew Point 64 °F
Humidity 88%
Rainfall 0.00 in
Snow Depth Not available.
UV 0 out of 12
Pollen 9.20 out of 12
Air Quality Not available.
Flu Activity Not available.
METAR KPPA 280055Z AUTO 12007KT 10SM SCT022 SCT047 OVC090 20/18 A3008 RMK AO2 LTG DSNT SW T02000179

More Conditions Fewer Conditions

Pressure 30.08 in
Visibility 10.0 miles
Clouds Scattered Clouds 2200 ft
Scattered Clouds 4700 ft
Overcast 9000 ft
Dew Point 64 °F
Humidity 88%
Rainfall 0.00 in
Snow Depth Not available.
UV 0 out of 12
Pollen 9.20 out of 12
Air Quality Not available.
Flu Activity Not available.
METAR KPPA 280055Z AUTO 12007KT 10SM SCT022 SCT047 OVC090 20/18 A3008 RMK AO2 LTG DSNT SW T02000179

More Conditions Fewer Conditions

Nowcast | as of 5:19 PM CDT on August 27, 2014

Scattered showers and thunderstorms will continue to move northeast at 20 to 25 miles an hour across the central and eastern panhandles this evening. Most of the activity will stay along and east of a line from Amarillo to Guymon. Some of the strongest storms will produce heavy rain which could cause localized flooding...hail and gusty winds to around 50 miles an hour.

×

10-Day Weather Forecast

Almanac

Astronomy

Aug. 27, 2014 Rise Set
Actual Time 7:09 AM CDT 8:14 PM CDT
Civil Twilight 6:42 AM CDT 8:40 PM CDT
Nautical Twilight 6:11 AM CDT 9:11 PM CDT
Astronomical Twilight 5:39 AM CDT 9:44 PM CDT
Moon 9:01 AM CDT (8/27) 9:14 PM CDT (8/27)
Length of Visible Light 13h 58m
Length of Day
13h 05m
Tomorrow will be 2m 6s shorter.
Waxing Crescent, 5% of the Moon is Illuminated
Today
Waxing Crescent
Sep 2
First Quarter
Sep 8
Full
Sep 15
Last Quarter
Sep 24
New

Today's Extremes

State Highs State Lows

Community

WunderPhotos

Upload Photos

1,747,842 photos uploaded!

Nearby

Snow Depth

Station Depth Elevation
No new snow has been reported.

Earthquake Activity

City Distance Mag. Time & Date
No recent earthquake activity has been reported nearby.
Minimum magnitude displayed is 2.5.

Coastal Water Temperatures

Place Temperature
No Stations Reporting

Nearby Weather Stations